Time;durP1;ratioP1;P1;durP2;ratioP2;P2;SDS_P1;SDS_P2;PMS_P1;PMS_P2;Temp;Humidity;BMP_temperature;BMP_pressure;BME280_temperature;BME280_humidity;BME280_pressure;Samples;Min_cycle;Max_cycle;Signal;HPM_P1;HPM_P2
2022/03/25 00:02:01;;;;;;;136.48;29.38;;;;;;;;;;6132954;23;20017;-87
2022/03/25 00:04:27;;;;;;;357.48;42.97;;;;;;;;;;6134637;23;20320;-87
2022/03/25 00:06:53;;;;;;;608.97;54.83;;;;;;;;;;6132921;23;20021;-86
2022/03/25 00:09:19;;;;;;;986.90;90.43;;;;;;;;;;6157834;23;20441;-86
2022/03/25 00:11:46;;;;;;;596.55;61.05;;;;;;;;;;6132883;23;20048;-88
2022/03/25 00:14:12;;;;;;;647.35;58.42;;;;;;;;;;6133203;23;20017;-86
2022/03/25 00:16:39;;;;;;;536.33;53.40;;;;;;;;;;6133465;23;20021;-86
2022/03/25 00:19:05;;;;;;;446.40;44.20;;;;;;;;;;6134884;23;20016;-87
2022/03/25 00:21:31;;;;;;;552.28;48.95;;;;;;;;;;6133153;23;20052;-86
2022/03/25 00:23:57;;;;;;;400.67;44.92;;;;;;;;;;6134391;23;20521;-86
2022/03/25 00:26:23;;;;;;;657.38;59.13;;;;;;;;;;6132842;23;20025;-88
2022/03/25 00:28:49;;;;;;;721.13;66.40;;;;;;;;;;6132364;23;20052;-87
2022/03/25 00:31:16;;;;;;;320.27;36.17;;;;;;;;;;6133450;23;20096;-87
2022/03/25 00:33:43;;;;;;;521.85;47.83;;;;;;;;;;6132953;23;20049;-87
2022/03/25 00:36:10;;;;;;;268.08;34.13;;;;;;;;;;6157418;23;20057;-87
2022/03/25 00:38:36;;;;;;;203.05;27.17;;;;;;;;;;6133322;23;20028;-90
2022/03/25 00:41:06;;;;;;;55.70;20.83;;;;;;;;;;6132334;23;20021;-88
2022/03/25 00:43:34;;;;;;;56.08;20.63;;;;;;;;;;6132265;23;20350;-88
2022/03/25 00:46:05;;;;;;;34.20;19.40;;;;;;;;;;6132124;23;20060;-87
2022/03/25 00:48:32;;;;;;;62.50;23.40;;;;;;;;;;6133228;23;20014;-87
2022/03/25 00:50:58;;;;;;;82.88;22.73;;;;;;;;;;6157343;23;20463;-87
2022/03/25 00:53:25;;;;;;;247.52;30.60;;;;;;;;;;6132767;23;20017;-86
2022/03/25 00:55:52;;;;;;;120.22;22.85;;;;;;;;;;6156910;23;20459;-87
2022/03/25 00:58:18;;;;;;;24.52;16.92;;;;;;;;;;6132370;23;20013;-88
2022/03/25 01:00:45;;;;;;;74.53;20.10;;;;;;;;;;6156666;23;20017;-87
2022/03/25 01:03:11;;;;;;;50.97;19.67;;;;;;;;;;6132517;23;20096;-86
2022/03/25 01:05:37;;;;;;;38.90;18.70;;;;;;;;;;6132266;23;20026;-87
2022/03/25 01:08:04;;;;;;;91.40;22.80;;;;;;;;;;6156758;23;20018;-86
2022/03/25 01:10:31;;;;;;;34.35;19.63;;;;;;;;;;6157026;23;20017;-88
2022/03/25 01:12:57;;;;;;;32.53;19.23;;;;;;;;;;6132201;23;20056;-87
2022/03/25 01:15:23;;;;;;;33.20;18.02;;;;;;;;;;6156709;23;20519;-88
2022/03/25 01:17:50;;;;;;;49.28;20.30;;;;;;;;;;6132269;23;20025;-87
2022/03/25 01:20:17;;;;;;;28.25;18.05;;;;;;;;;;6131743;23;20075;-88
2022/03/25 01:22:44;;;;;;;26.58;17.25;;;;;;;;;;6156710;23;20021;-87
2022/03/25 01:25:10;;;;;;;35.28;20.42;;;;;;;;;;6132237;23;20029;-86
2022/03/25 01:27:36;;;;;;;29.50;18.40;;;;;;;;;;6132418;23;20056;-87
2022/03/25 01:30:03;;;;;;;25.10;16.17;;;;;;;;;;6132453;23;20024;-87
2022/03/25 01:32:29;;;;;;;24.80;16.77;;;;;;;;;;6131204;23;20629;-86
2022/03/25 01:34:55;;;;;;;19.67;15.35;;;;;;;;;;6132553;23;20141;-87
2022/03/25 01:37:23;;;;;;;22.75;16.40;;;;;;;;;;6132366;23;20021;-90
2022/03/25 01:39:49;;;;;;;20.35;15.05;;;;;;;;;;6131723;23;20024;-89
2022/03/25 01:42:15;;;;;;;19.60;14.15;;;;;;;;;;6131886;23;20049;-90
2022/03/25 01:44:41;;;;;;;20.27;14.15;;;;;;;;;;6156292;23;20024;-88
2022/03/25 01:47:09;;;;;;;21.88;16.02;;;;;;;;;;6132028;23;20017;-89
2022/03/25 01:49:35;;;;;;;21.48;15.75;;;;;;;;;;6131606;23;20025;-91
2022/03/25 01:52:03;;;;;;;20.80;14.90;;;;;;;;;;6132791;23;20070;-90
2022/03/25 01:54:30;;;;;;;22.63;15.10;;;;;;;;;;6157501;23;20099;-87
2022/03/25 01:56:58;;;;;;;22.48;16.15;;;;;;;;;;6157424;23;20080;-86
2022/03/25 01:59:24;;;;;;;18.08;13.60;;;;;;;;;;6132952;23;20470;-87
2022/03/25 02:01:51;;;;;;;21.48;15.35;;;;;;;;;;6133345;23;20044;-87
2022/03/25 02:04:20;;;;;;;22.05;14.88;;;;;;;;;;6133215;23;20060;-87
2022/03/25 02:06:46;;;;;;;23.05;14.98;;;;;;;;;;6133096;23;20020;-88
2022/03/25 02:09:12;;;;;;;21.23;15.23;;;;;;;;;;6133211;23;20347;-87
2022/03/25 02:11:39;;;;;;;20.20;15.10;;;;;;;;;;6132062;23;20408;-87
2022/03/25 02:14:05;;;;;;;19.77;13.82;;;;;;;;;;6157618;23;20014;-86
2022/03/25 02:16:49;;;;;;;20.80;14.57;;;;;;;;;;6133855;23;20040;-87
2022/03/25 02:19:19;;;;;;;21.10;14.57;;;;;;;;;;6132889;23;20017;-87
2022/03/25 02:21:49;;;;;;;23.77;15.45;;;;;;;;;;6156930;23;20352;-86
2022/03/25 02:24:15;;;;;;;19.83;15.10;;;;;;;;;;6132805;23;20018;-87
2022/03/25 02:26:42;;;;;;;21.83;15.68;;;;;;;;;;6157812;23;20447;-86
2022/03/25 02:29:09;;;;;;;19.23;14.68;;;;;;;;;;6133852;23;20018;-87
2022/03/25 02:31:35;;;;;;;23.88;15.48;;;;;;;;;;6157246;23;20025;-87
2022/03/25 02:34:03;;;;;;;55.65;19.45;;;;;;;;;;6156843;23;20021;-87
2022/03/25 02:36:29;;;;;;;25.17;16.95;;;;;;;;;;6156528;23;20018;-86
2022/03/25 02:38:55;;;;;;;27.60;17.40;;;;;;;;;;6155781;23;20020;-86
2022/03/25 02:41:21;;;;;;;27.15;16.35;;;;;;;;;;6131729;23;20045;-87
2022/03/25 02:43:47;;;;;;;23.83;17.25;;;;;;;;;;6131225;23;20025;-86
2022/03/25 02:46:13;;;;;;;24.67;16.35;;;;;;;;;;6156256;23;20047;-89
2022/03/25 02:48:39;;;;;;;23.90;15.98;;;;;;;;;;6132416;23;20013;-87
2022/03/25 02:51:06;;;;;;;28.27;16.92;;;;;;;;;;6132393;23;20029;-88
2022/03/25 02:53:32;;;;;;;26.90;17.00;;;;;;;;;;6155870;23;20347;-88
2022/03/25 02:55:58;;;;;;;30.55;18.80;;;;;;;;;;6157425;23;20026;-87
2022/03/25 02:58:24;;;;;;;29.92;18.80;;;;;;;;;;6131013;23;20014;-87
2022/03/25 03:00:51;;;;;;;30.42;18.92;;;;;;;;;;6131812;23;20063;-87
2022/03/25 03:03:17;;;;;;;32.17;20.55;;;;;;;;;;6131909;23;20032;-90
2022/03/25 03:05:43;;;;;;;49.60;21.38;;;;;;;;;;6156209;23;20144;-87
2022/03/25 03:08:09;;;;;;;71.55;22.85;;;;;;;;;;6157541;23;20026;-88
2022/03/25 03:10:35;;;;;;;34.97;21.05;;;;;;;;;;6131797;23;20010;-88
2022/03/25 03:13:02;;;;;;;32.28;20.27;;;;;;;;;;6158052;23;20017;-88
2022/03/25 03:15:29;;;;;;;31.38;20.77;;;;;;;;;;6131306;23;20052;-88
2022/03/25 03:17:55;;;;;;;31.40;18.23;;;;;;;;;;6157125;23;20455;-92
2022/03/25 03:20:21;;;;;;;26.63;16.98;;;;;;;;;;6157206;23;20020;-87
2022/03/25 03:22:48;;;;;;;29.52;19.92;;;;;;;;;;6130943;23;20086;-88
2022/03/25 03:25:14;;;;;;;27.85;18.42;;;;;;;;;;6156469;23;20068;-88
2022/03/25 03:27:40;;;;;;;25.45;17.15;;;;;;;;;;6131168;23;20021;-87
2022/03/25 03:30:08;;;;;;;84.95;20.58;;;;;;;;;;6131557;23;20017;-88
2022/03/25 03:32:35;;;;;;;30.75;19.63;;;;;;;;;;6131003;23;20022;-88
2022/03/25 03:35:01;;;;;;;46.30;20.20;;;;;;;;;;6155422;23;20021;-87
2022/03/25 03:37:27;;;;;;;37.20;22.02;;;;;;;;;;6132450;23;20021;-87
2022/03/25 03:39:53;;;;;;;32.72;19.17;;;;;;;;;;6133875;23;20014;-89
2022/03/25 03:42:20;;;;;;;30.40;19.80;;;;;;;;;;6133069;23;20337;-87
2022/03/25 03:44:46;;;;;;;46.42;21.83;;;;;;;;;;6157502;23;20017;-87
2022/03/25 03:47:12;;;;;;;127.68;25.23;;;;;;;;;;6133256;23;20009;-89
2022/03/25 03:49:39;;;;;;;36.08;19.00;;;;;;;;;;6157632;23;20025;-90
2022/03/25 03:52:05;;;;;;;46.30;21.30;;;;;;;;;;6133107;23;20037;-90
2022/03/25 03:54:32;;;;;;;32.90;19.08;;;;;;;;;;6133030;23;20025;-89
2022/03/25 03:56:59;;;;;;;31.45;19.67;;;;;;;;;;6157267;23;20021;-86
2022/03/25 03:59:25;;;;;;;32.85;18.75;;;;;;;;;;6133224;23;20017;-87
2022/03/25 04:01:51;;;;;;;34.55;20.52;;;;;;;;;;6157673;23;20013;-88
2022/03/25 04:04:17;;;;;;;30.50;19.83;;;;;;;;;;6132769;23;20026;-87
2022/03/25 04:06:44;;;;;;;36.15;19.65;;;;;;;;;;6157540;23;20020;-88
2022/03/25 04:09:10;;;;;;;27.83;17.05;;;;;;;;;;6132933;23;20410;-88
2022/03/25 04:11:36;;;;;;;37.30;18.27;;;;;;;;;;6132500;23;20017;-87
2022/03/25 04:14:02;;;;;;;27.38;16.92;;;;;;;;;;6132180;23;20073;-88
2022/03/25 04:16:31;;;;;;;32.83;17.90;;;;;;;;;;6132336;23;20014;-88
2022/03/25 04:18:57;;;;;;;29.65;18.17;;;;;;;;;;6131780;23;20021;-86
2022/03/25 04:21:24;;;;;;;25.85;15.80;;;;;;;;;;6156890;23;20017;-86
2022/03/25 04:23:50;;;;;;;27.00;16.50;;;;;;;;;;6157148;23;20072;-88
2022/03/25 04:26:16;;;;;;;29.20;17.00;;;;;;;;;;6132646;23;20379;-87
2022/03/25 04:28:42;;;;;;;24.45;15.40;;;;;;;;;;6132427;23;20020;-87
2022/03/25 04:31:09;;;;;;;25.75;15.98;;;;;;;;;;6131991;23;20040;-87
2022/03/25 04:33:36;;;;;;;26.77;16.00;;;;;;;;;;6156319;23;20021;-86
2022/03/25 04:36:02;;;;;;;24.98;16.80;;;;;;;;;;6131874;23;20025;-86
2022/03/25 04:38:28;;;;;;;25.50;15.00;;;;;;;;;;6156452;23;20018;-86
2022/03/25 04:40:54;;;;;;;26.10;15.50;;;;;;;;;;6132413;23;20017;-87
2022/03/25 04:43:20;;;;;;;28.00;16.75;;;;;;;;;;6132293;23;20017;-86
2022/03/25 04:45:47;;;;;;;24.95;15.68;;;;;;;;;;6131893;23;20021;-86
2022/03/25 04:48:14;;;;;;;45.45;17.98;;;;;;;;;;6132210;23;20013;-86
2022/03/25 04:50:40;;;;;;;32.67;17.08;;;;;;;;;;6157154;23;20079;-86
2022/03/25 04:53:06;;;;;;;58.25;19.30;;;;;;;;;;6132339;23;20022;-84
2022/03/25 04:55:32;;;;;;;26.60;15.23;;;;;;;;;;6131963;23;20027;-85
2022/03/25 04:57:58;;;;;;;22.40;14.73;;;;;;;;;;6156781;23;20021;-84
2022/03/25 05:00:24;;;;;;;25.52;15.35;;;;;;;;;;6132536;23;20033;-89
2022/03/25 05:02:51;;;;;;;26.70;17.27;;;;;;;;;;6132270;23;20087;-87
2022/03/25 05:05:17;;;;;;;25.70;15.93;;;;;;;;;;6156712;23;20017;-86
2022/03/25 05:07:44;;;;;;;22.02;15.18;;;;;;;;;;6157031;23;20022;-85
2022/03/25 05:10:11;;;;;;;22.77;14.52;;;;;;;;;;6132547;23;20017;-85
2022/03/25 05:12:38;;;;;;;21.70;14.00;;;;;;;;;;6156916;23;20359;-86
2022/03/25 05:15:05;;;;;;;22.38;14.57;;;;;;;;;;6132844;23;20028;-84
2022/03/25 05:17:31;;;;;;;19.25;14.20;;;;;;;;;;6132348;23;20017;-83
2022/03/25 05:19:57;;;;;;;20.17;14.07;;;;;;;;;;6156769;23;20037;-84
2022/03/25 05:22:23;;;;;;;21.52;13.88;;;;;;;;;;6158857;23;20021;-86
2022/03/25 05:24:49;;;;;;;18.83;13.05;;;;;;;;;;6158172;23;20029;-87
2022/03/25 05:27:16;;;;;;;19.80;14.10;;;;;;;;;;6157907;23;20018;-86
2022/03/25 05:29:42;;;;;;;25.98;15.52;;;;;;;;;;6131831;23;20026;-85
2022/03/25 05:32:09;;;;;;;19.00;13.23;;;;;;;;;;6133229;23;20022;-84
2022/03/25 05:34:36;;;;;;;21.73;14.35;;;;;;;;;;6132044;23;20022;-86
2022/03/25 05:37:02;;;;;;;19.67;12.57;;;;;;;;;;6131668;23;20060;-86
2022/03/25 05:39:28;;;;;;;19.92;13.75;;;;;;;;;;6157873;23;20100;-86
2022/03/25 05:41:54;;;;;;;22.73;14.57;;;;;;;;;;6158867;23;20084;-87
2022/03/25 05:44:20;;;;;;;22.20;13.75;;;;;;;;;;6131936;23;20021;-85
2022/03/25 05:46:46;;;;;;;24.33;15.40;;;;;;;;;;6133243;23;20018;-84
2022/03/25 05:49:12;;;;;;;25.05;14.60;;;;;;;;;;6156452;23;20455;-84
2022/03/25 05:51:38;;;;;;;24.85;16.13;;;;;;;;;;6156454;23;20066;-84
2022/03/25 05:54:04;;;;;;;26.77;17.10;;;;;;;;;;6131635;23;20412;-84
2022/03/25 05:56:31;;;;;;;27.30;16.45;;;;;;;;;;6131418;23;20072;-86
2022/03/25 05:58:57;;;;;;;26.83;17.00;;;;;;;;;;6131012;23;20018;-83
2022/03/25 06:01:23;;;;;;;27.58;17.55;;;;;;;;;;6156266;23;20017;-84
2022/03/25 06:03:49;;;;;;;31.15;17.80;;;;;;;;;;6131706;23;20083;-84
2022/03/25 06:06:15;;;;;;;25.67;16.33;;;;;;;;;;6131511;23;20025;-85
2022/03/25 06:08:41;;;;;;;31.05;17.30;;;;;;;;;;6131629;23;20395;-84
2022/03/25 06:11:08;;;;;;;31.92;17.38;;;;;;;;;;6157611;23;20017;-84
2022/03/25 06:13:34;;;;;;;31.48;18.13;;;;;;;;;;6131220;23;20017;-84
2022/03/25 06:16:00;;;;;;;30.08;17.45;;;;;;;;;;6131231;23;20022;-85
2022/03/25 06:18:26;;;;;;;35.15;18.27;;;;;;;;;;6155336;23;20088;-85
2022/03/25 06:20:52;;;;;;;33.38;19.58;;;;;;;;;;6131285;23;20019;-84
2022/03/25 06:23:18;;;;;;;29.27;17.77;;;;;;;;;;6155657;23;20469;-85
2022/03/25 06:25:44;;;;;;;33.95;19.15;;;;;;;;;;6132436;23;20040;-85
2022/03/25 06:28:10;;;;;;;33.85;19.27;;;;;;;;;;6133013;23;20017;-85
2022/03/25 06:30:37;;;;;;;31.65;18.42;;;;;;;;;;6132639;23;20100;-86
2022/03/25 06:33:04;;;;;;;27.27;17.50;;;;;;;;;;6131049;23;20448;-85
2022/03/25 06:35:31;;;;;;;32.03;17.67;;;;;;;;;;6130773;23;20032;-86
2022/03/25 06:37:57;;;;;;;23.40;14.90;;;;;;;;;;6131298;23;20170;-86
2022/03/25 06:40:23;;;;;;;22.20;14.57;;;;;;;;;;6155962;23;20017;-84
2022/03/25 06:42:52;;;;;;;23.48;15.52;;;;;;;;;;6156086;23;20017;-84
2022/03/25 06:45:18;;;;;;;26.50;15.45;;;;;;;;;;6131334;23;20014;-84
2022/03/25 06:47:45;;;;;;;24.75;15.15;;;;;;;;;;6157672;23;20021;-85
2022/03/25 06:50:13;;;;;;;31.13;15.68;;;;;;;;;;6134785;23;20017;-87
2022/03/25 06:52:39;;;;;;;24.58;15.63;;;;;;;;;;6135421;23;20022;-85
2022/03/25 06:55:06;;;;;;;27.98;17.55;;;;;;;;;;6159739;23;20120;-87
2022/03/25 06:57:32;;;;;;;28.85;17.52;;;;;;;;;;6161170;23;20084;-85
2022/03/25 06:59:59;;;;;;;32.70;17.85;;;;;;;;;;6161398;23;20371;-85
2022/03/25 07:02:25;;;;;;;35.75;19.60;;;;;;;;;;6161385;23;20073;-86
2022/03/25 07:04:51;;;;;;;33.22;20.23;;;;;;;;;;6135298;23;20460;-86
2022/03/25 07:07:26;;;;;;;36.22;18.80;;;;;;;;;;6157582;23;20025;-87
2022/03/25 07:09:55;;;;;;;38.85;21.42;;;;;;;;;;6158410;23;20447;-88
2022/03/25 07:12:24;;;;;;;44.50;21.30;;;;;;;;;;6136383;23;20013;-87
2022/03/25 07:14:50;;;;;;;42.47;22.17;;;;;;;;;;6160542;23;20017;-87
2022/03/25 07:17:18;;;;;;;40.35;21.33;;;;;;;;;;6160163;23;20069;-87
2022/03/25 07:19:44;;;;;;;44.20;23.60;;;;;;;;;;6135671;23;20024;-88
2022/03/25 07:22:10;;;;;;;47.63;25.20;;;;;;;;;;6159813;23;20017;-87
2022/03/25 07:24:39;;;;;;;47.53;25.08;;;;;;;;;;6135890;23;20018;-88
2022/03/25 07:27:05;;;;;;;58.08;28.17;;;;;;;;;;6159661;23;20025;-87
2022/03/25 07:29:31;;;;;;;50.15;27.42;;;;;;;;;;6160615;23;20024;-88
2022/03/25 07:31:58;;;;;;;58.85;29.23;;;;;;;;;;6158991;23;20023;-87
2022/03/25 07:34:24;;;;;;;59.03;30.92;;;;;;;;;;6158957;23;20052;-86
2022/03/25 07:36:50;;;;;;;70.00;29.17;;;;;;;;;;6134135;23;20072;-88
2022/03/25 07:39:19;;;;;;;55.92;29.55;;;;;;;;;;6133331;23;20093;-86
2022/03/25 07:41:47;;;;;;;85.63;32.97;;;;;;;;;;6134137;23;20025;-85
2022/03/25 07:44:14;;;;;;;92.47;32.83;;;;;;;;;;6158133;23;20355;-86
2022/03/25 07:46:40;;;;;;;58.92;30.15;;;;;;;;;;6157925;23;20020;-86
2022/03/25 07:49:07;;;;;;;66.40;30.13;;;;;;;;;;6158869;23;20340;-86
2022/03/25 07:51:39;;;;;;;59.30;28.30;;;;;;;;;;6160989;23;20071;-86
2022/03/25 07:54:06;;;;;;;56.55;27.80;;;;;;;;;;6157839;23;20412;-86
2022/03/25 07:56:32;;;;;;;48.40;25.73;;;;;;;;;;6155468;23;20367;-87
2022/03/25 07:58:59;;;;;;;56.30;26.98;;;;;;;;;;6131001;23;20021;-88
2022/03/25 08:01:25;;;;;;;49.20;25.50;;;;;;;;;;6130895;23;20018;-87
2022/03/25 08:03:51;;;;;;;47.35;25.02;;;;;;;;;;6131847;23;20009;-86
2022/03/25 08:06:17;;;;;;;50.20;25.08;;;;;;;;;;6158201;23;20398;-87
2022/03/25 08:08:47;;;;;;;42.88;23.92;;;;;;;;;;6158324;23;20021;-88
2022/03/25 08:11:13;;;;;;;49.53;25.50;;;;;;;;;;6156502;23;20020;-88
2022/03/25 08:13:39;;;;;;;37.00;21.75;;;;;;;;;;6158015;23;20072;-87
2022/03/25 08:16:06;;;;;;;41.22;22.58;;;;;;;;;;6156251;23;20103;-87
2022/03/25 08:18:32;;;;;;;37.53;22.67;;;;;;;;;;6156289;23;20022;-86
2022/03/25 08:20:58;;;;;;;50.17;25.25;;;;;;;;;;6157265;23;20150;-87
2022/03/25 08:28:58;;;;;;;43.40;22.30;;;;;;;;;;6157919;23;20048;-87
2022/03/25 08:31:24;;;;;;;38.45;23.75;;;;;;;;;;6157035;23;20467;-86
2022/03/25 08:33:51;;;;;;;45.05;24.40;;;;;;;;;;6156937;23;20021;-87
2022/03/25 08:36:17;;;;;;;35.78;22.70;;;;;;;;;;6159396;23;20017;-87
2022/03/25 08:38:44;;;;;;;35.90;21.90;;;;;;;;;;6132472;23;20021;-87
2022/03/25 08:41:10;;;;;;;38.60;22.23;;;;;;;;;;6157450;23;20064;-86
2022/03/25 08:43:37;;;;;;;34.78;22.00;;;;;;;;;;6158677;23;20080;-87
2022/03/25 08:46:03;;;;;;;36.05;20.88;;;;;;;;;;6133905;23;20053;-87
2022/03/25 08:48:30;;;;;;;36.67;21.15;;;;;;;;;;6134279;23;20025;-88
2022/03/25 08:50:56;;;;;;;35.28;21.15;;;;;;;;;;6134288;23;20022;-87
2022/03/25 08:53:22;;;;;;;37.08;19.23;;;;;;;;;;6135660;23;20028;-89
2022/03/25 08:55:48;;;;;;;39.60;20.77;;;;;;;;;;6134179;23;20017;-88
2022/03/25 08:58:15;;;;;;;37.65;21.00;;;;;;;;;;6135266;23;20018;-87
2022/03/25 09:00:41;;;;;;;40.80;20.92;;;;;;;;;;6134376;23;20024;-87
2022/03/25 09:03:07;;;;;;;34.45;17.50;;;;;;;;;;6159392;23;20018;-87
2022/03/25 09:05:33;;;;;;;35.65;17.55;;;;;;;;;;6159961;23;20444;-88
2022/03/25 09:08:00;;;;;;;30.30;18.58;;;;;;;;;;6136318;23;20056;-87
2022/03/25 09:10:26;;;;;;;38.53;19.77;;;;;;;;;;6135627;23;20024;-90
2022/03/25 09:12:55;;;;;;;31.80;19.67;;;;;;;;;;6136818;23;20032;-89
2022/03/25 09:15:22;;;;;;;32.20;18.23;;;;;;;;;;6158793;23;20100;-89
2022/03/25 09:17:49;;;;;;;52.38;20.50;;;;;;;;;;6134886;23;20041;-88
2022/03/25 09:20:16;;;;;;;29.55;17.65;;;;;;;;;;6134738;23;20024;-89
2022/03/25 09:22:42;;;;;;;27.73;16.92;;;;;;;;;;6135001;23;20424;-89
2022/03/25 09:25:12;;;;;;;28.10;17.23;;;;;;;;;;6159022;23;20100;-88
2022/03/25 09:27:39;;;;;;;29.95;18.00;;;;;;;;;;6134823;23;20017;-89
2022/03/25 09:30:09;;;;;;;32.03;16.17;;;;;;;;;;6135122;23;20017;-89
2022/03/25 09:32:38;;;;;;;25.67;14.38;;;;;;;;;;6135169;23;20430;-89
2022/03/25 09:35:13;;;;;;;28.05;15.77;;;;;;;;;;6134317;23;20075;-88
2022/03/25 09:37:43;;;;;;;26.33;15.32;;;;;;;;;;6134258;23;20028;-89
2022/03/25 09:40:16;;;;;;;27.65;16.50;;;;;;;;;;6134079;23;20070;-88
2022/03/25 09:42:42;;;;;;;34.50;16.73;;;;;;;;;;6159728;23;20330;-88
2022/03/25 09:45:12;;;;;;;29.00;14.80;;;;;;;;;;6133915;23;20053;-89
2022/03/25 09:47:38;;;;;;;24.17;15.32;;;;;;;;;;6134469;23;20019;-87
2022/03/25 09:50:06;;;;;;;24.05;13.80;;;;;;;;;;6159517;23;20447;-89
2022/03/25 09:52:33;;;;;;;24.58;14.32;;;;;;;;;;6160870;23;20049;-89
2022/03/25 09:55:00;;;;;;;31.65;17.23;;;;;;;;;;6134538;23;20078;-90
2022/03/25 09:57:26;;;;;;;28.23;15.88;;;;;;;;;;6134477;23;20018;-88
2022/03/25 09:59:53;;;;;;;32.13;17.08;;;;;;;;;;6134358;23;20017;-89
2022/03/25 10:02:19;;;;;;;29.35;15.95;;;;;;;;;;6134678;23;20043;-89
2022/03/25 10:04:46;;;;;;;25.65;15.07;;;;;;;;;;6158214;23;20018;-89
2022/03/25 10:07:23;;;;;;;33.47;16.10;;;;;;;;;;6135159;23;20020;-91
2022/03/25 10:10:08;;;;;;;28.00;14.35;;;;;;;;;;6160477;23;20084;-90
2022/03/25 10:12:42;;;;;;;23.77;13.95;;;;;;;;;;6159156;23;20221;-90
2022/03/25 10:15:29;;;;;;;24.40;13.50;;;;;;;;;;6158938;23;20025;-90
2022/03/25 10:17:57;;;;;;;26.42;15.10;;;;;;;;;;6134215;23;20018;-88
2022/03/25 10:20:42;;;;;;;30.52;17.30;;;;;;;;;;6159119;23;20018;-88
2022/03/25 10:23:09;;;;;;;26.27;15.10;;;;;;;;;;6134262;23;20080;-88
2022/03/25 10:25:44;;;;;;;26.33;15.02;;;11.50;99.90;;;;;;6158420;23;20014;-88
2022/03/25 10:28:31;;;;;;;26.27;16.88;;;;;;;;;;6132138;23;20068;-87
2022/03/25 10:31:02;;;;;;;32.92;15.30;;;;;;;;;;6158769;23;20025;-89
2022/03/25 10:33:34;;;;;;;37.85;16.63;;;;;;;;;;6158255;23;20451;-88
2022/03/25 10:36:02;;;;;;;27.52;15.30;;;;;;;;;;6158825;23;20013;-88
2022/03/25 10:38:48;;;;;;;27.88;15.63;;;;;;;;;;6134164;23;20104;-89
2022/03/25 10:41:16;;;;;;;32.63;15.63;;;;;;;;;;6134468;23;20017;-88
2022/03/25 10:43:52;;;;;;;29.05;15.88;;;;;;;;;;6156548;23;20013;-88
2022/03/25 10:46:28;;;;;;;33.88;16.85;;;;;;;;;;6132675;23;20451;-89
2022/03/25 10:48:54;;;;;;;32.63;17.13;;;;;;;;;;6132680;23;20052;-87
2022/03/25 10:51:21;;;;;;;24.33;15.55;;;;;;;;;;6156056;23;20108;-88
2022/03/25 10:53:49;;;;;;;27.48;16.48;;;;;;;;;;6156553;23;20075;-89
2022/03/25 10:56:15;;;;;;;31.77;16.38;;;;;;;;;;6132918;23;20013;-88
2022/03/25 10:58:51;;;;;;;26.48;16.63;;;;;;;;;;6157268;23;20459;-89
2022/03/25 11:01:17;;;;;;;30.58;17.52;;;;;;;;;;6133120;23;20017;-88
2022/03/25 11:03:44;;;;;;;30.95;17.17;;;;;;;;;;6158254;23;20024;-88
2022/03/25 11:06:15;;;;;;;31.25;16.67;;;12.60;99.90;;;;;;6132500;23;20018;-88
2022/03/25 11:08:41;;;;;;;31.25;16.95;;;;;;;;;;6131904;23;20018;-88
2022/03/25 11:11:08;;;;;;;31.88;16.40;;;;;;;;;;6133992;23;20045;-89
2022/03/25 11:13:34;;;;;;;30.27;17.80;;;;;;;;;;6156789;23;20407;-88
2022/03/25 11:16:02;;;;;;;33.50;17.77;;;;;;;;;;6131070;23;20055;-88
2022/03/25 11:18:29;;;;;;;46.60;17.25;;;;;;;;;;6131795;23;20028;-89
2022/03/25 11:20:58;;;;;;;28.08;14.65;;;;;;;;;;6131372;23;20028;-89
2022/03/25 11:23:25;;;;;;;30.10;16.90;;;;;;;;;;6132631;23;20438;-90
2022/03/25 11:25:53;;;;;;;28.33;16.02;;;;;;;;;;6155436;23;20022;-89
2022/03/25 11:28:26;;;;;;;26.20;15.70;;;;;;;;;;6131107;23;20403;-89
2022/03/25 11:31:02;;;;;;;24.33;15.05;;;;;;;;;;6155701;23;20025;-89
2022/03/25 11:33:28;;;;;;;22.73;15.23;;;;;;;;;;6155311;23;20044;-89
2022/03/25 11:36:15;;;;;;;26.30;14.65;;;;;;;;;;6156377;23;20021;-90
2022/03/25 11:38:41;;;;;;;24.05;14.00;;;;;;;;;;6132321;23;20020;-90
2022/03/25 11:41:40;;;;;;;25.98;15.00;;;;;;;;;;6132428;23;20021;-91
2022/03/25 11:44:15;;;;;;;29.73;14.07;;;;;;;;;;5991882;23;20102;-90
2022/03/25 11:46:59;;;;;;;22.40;14.05;;;;;;;;;;5991742;23;20015;-89
2022/03/25 11:49:29;;;;;;;25.38;12.93;;;;;;;;;;5992137;23;20110;-90
2022/03/25 11:51:56;;;;;;;19.42;12.02;;;;;;;;;;5991949;23;20063;-89
2022/03/25 11:54:38;;;;;;;21.02;13.65;;;;;;;;;;5991373;23;20019;-90
2022/03/25 11:57:05;;;;;;;21.70;12.80;;;;;;;;;;5992589;23;20067;-90
2022/03/25 11:59:54;;;;;;;22.75;13.40;;;;;;;;;;5993200;23;20030;-88
2022/03/25 12:02:23;;;;;;;32.72;19.80;;;;;;;;;;5992472;23;20026;-89
2022/03/25 12:04:49;;;;;;;35.00;19.70;;;;;;;;;;6015881;23;20034;-89
2022/03/25 12:07:16;;;;;;;35.08;20.25;;;;;;;;;;5993106;23;20097;-89
2022/03/25 12:09:46;;;;;;;29.25;18.83;;;;;;;;;;5993128;23;20023;-90
2022/03/25 12:12:13;;;;;;;36.60;20.27;;;;;;;;;;5993384;23;20051;-89
2022/03/25 12:15:04;;;;;;;29.90;18.50;;;14.30;99.90;;;;;;5993058;23;20020;-90
2022/03/25 12:17:30;;;;;;;30.13;19.42;;;;;;;;;;5993882;23;20047;-89
2022/03/25 12:19:56;;;;;;;31.38;17.73;;;;;;;;;;6077619;23;20096;-90
2022/03/25 12:22:23;;;;;;;22.50;16.50;;;;;;;;;;6133612;23;20024;-88
2022/03/25 12:24:52;;;;;;;30.42;18.02;;;;;;;;;;6132106;23;20101;-90
2022/03/25 12:27:19;;;;;;;28.42;15.65;;;14.40;99.90;;;;;;6132454;23;20018;-89
2022/03/25 12:29:54;;;;;;;24.17;15.95;;;14.20;99.90;;;;;;6132168;23;20018;-88
2022/03/25 12:32:21;;;;;;;26.00;15.75;;;;;;;;;;6132481;23;20455;-88
2022/03/25 12:34:56;;;;;;;25.42;15.45;;;;;;;;;;6132216;23;20024;-89
2022/03/25 12:37:31;;;;;;;25.30;14.48;;;;;;;;;;6133865;23;20053;-89
2022/03/25 12:40:33;;;;;;;29.17;15.23;;;;;;;;;;6132536;23;20076;-89
2022/03/25 12:43:00;;;;;;;21.77;13.88;;;;;;;;;;6016979;23;20021;-89
2022/03/25 12:45:30;;;;;;;27.73;14.00;;;;;;;;;;5992980;23;20094;-88
2022/03/25 12:47:57;;;;;;;20.70;13.32;;;;;;;;;;5992544;23;20086;-88
2022/03/25 12:50:23;;;;;;;21.70;13.23;;;;;;;;;;5992241;23;20019;-89
2022/03/25 12:53:01;;;;;;;26.35;13.73;;;;;;;;;;5993121;23;20026;-90
2022/03/25 12:55:32;;;;;;;22.58;12.90;;;;;;;;;;5992161;23;20072;-89
2022/03/25 12:58:01;;;;;;;20.77;12.48;;;;;;;;;;5992125;23;20052;-89
2022/03/25 13:00:32;;;;;;;21.63;12.40;;;;;;;;;;6015469;23;20023;-90
2022/03/25 13:02:58;;;;;;;23.65;12.48;;;;;;;;;;5992284;23;20147;-88
2022/03/25 13:05:25;;;;;;;19.50;11.52;;;;;;;;;;5992498;23;20073;-90
2022/03/25 13:07:56;;;;;;;20.25;12.30;;;14.50;99.90;;;;;;5991721;23;20034;-90
2022/03/25 13:13:54;;;;;;;19.42;11.23;;;;;;;;;;6041244;23;20436;-89
2022/03/25 13:16:24;;;;;;;16.45;9.65;;;14.40;99.90;;;;;;5994335;23;20034;-89
2022/03/25 13:18:50;;;;;;;16.38;11.13;;;;;;;;;;6106312;23;20014;-89
2022/03/25 13:21:16;;;;;;;20.92;11.90;;;;;;;;;;6135342;23;20069;-89
2022/03/25 13:23:42;;;;;;;21.70;11.07;;;;;;;;;;6133696;23;20391;-89
2022/03/25 13:26:09;;;;;;;22.45;13.27;;;;;;;;;;6133930;23;20021;-90
2022/03/25 13:28:39;;;;;;;25.30;13.02;;;14.80;99.90;;;;;;6132461;23;20339;-89
2022/03/25 13:31:07;;;;;;;27.25;13.73;;;;;;;;;;6131822;23;20356;-90
2022/03/25 13:33:45;;;;;;;31.17;13.93;;;;;;;;;;6132770;23;20491;-91
2022/03/25 13:36:12;;;;;;;22.90;13.18;;;;;;;;;;6131921;23;20482;-91
2022/03/25 13:38:38;;;;;;;28.75;15.15;;;;;;;;;;6132510;23;20029;-91
2022/03/25 13:41:20;;;;;;;23.10;13.77;;;14.80;99.90;;;;;;6133070;23;20393;-90
2022/03/25 13:43:49;;;;;;;22.45;12.50;;;15.00;99.90;;;;;;6131805;23;20452;-92
2022/03/25 13:46:31;;;;;;;23.08;11.25;;;;;;;;;;6132246;23;20017;-91
2022/03/25 13:49:03;;;;;;;21.17;12.98;;;15.10;99.90;;;;;;6132623;23;20018;-91
2022/03/25 14:51:02;;;;;;;34.83;16.13;;;;;;;;;;6094329;23;20029;-90
2022/03/25 14:57:10;;;;;;;30.45;17.08;;;15.30;99.90;;;;;;6189249;22;20032;-90
2022/03/25 14:59:59;;;;;;;26.30;15.98;;;;;;;;;;6071054;23;20022;-90
2022/03/25 15:03:11;;;;;;;;;;;;;;;;;;;;;
2022/03/25 15:28:24;;;;;;;21.30;9.90;;;;;;;;;;6139192;23;20022;-90
2022/03/25 16:04:13;;;;;;;;;;;;;;;;;;;;;
2022/03/25 16:39:07;;;;;;;23.45;9.98;;;14.70;99.90;;;;;;6208263;22;20028;-90
2022/03/25 16:41:40;;;;;;;21.25;10.50;;;;;;;;;;6079602;23;20383;-89
2022/03/25 16:44:06;;;;;;;19.17;10.68;;;;;;;;;;6078552;23;20034;-89
2022/03/25 16:46:33;;;;;;;20.73;10.45;;;14.70;99.90;;;;;;6101643;23;20348;-90
2022/03/25 16:48:59;;;;;;;21.08;10.18;;;;;;;;;;6102224;23;20053;-90
2022/03/25 16:51:25;;;;;;;17.88;10.55;;;;;;;;;;6101915;23;20021;-89
2022/03/25 16:53:51;;;;;;;19.05;10.88;;;;;;;;;;6072955;23;20019;-90
2022/03/25 16:56:19;;;;;;;21.27;11.88;;;;;;;;;;6073008;23;20026;-89
2022/03/25 16:58:45;;;;;;;31.10;12.77;;;;;;;;;;6072930;23;20018;-90
2022/03/25 17:01:12;;;;;;;21.45;13.48;;;;;;;;;;6073921;23;20029;-90